Time;durP1;ratioP1;P1;durP2;ratioP2;P2;SDS_P1;SDS_P2;PMS_P1;PMS_P2;Temp;Humidity;BMP_temperature;BMP_pressure;BME280_temperature;BME280_humidity;BME280_pressure;Samples;Min_cycle;Max_cycle;Signal;HPM_P1;HPM_P2
2022/06/17 00:00:50;;;;;;;3.15;2.85;;;17.20;87.20;;;;;;2098382;28;20792;-70
2022/06/17 00:01:51;;;;;;;5.05;3.00;;;17.20;87.80;;;;;;2095012;28;20099;-70
2022/06/17 00:02:53;;;;;;;4.72;2.67;;;17.20;88.40;;;;;;2097263;28;20019;-70
2022/06/17 00:03:53;;;;;;;4.75;2.83;;;17.20;89.80;;;;;;2095798;28;20039;-70
2022/06/17 00:04:54;;;;;;;4.65;3.08;;;17.20;90.10;;;;;;2095271;28;20579;-70
2022/06/17 00:05:57;;;;;;;3.78;3.22;;;17.20;90.40;;;;;;2097413;28;20029;-70
2022/06/17 00:07:08;;;;;;;3.80;3.08;;;17.10;90.40;;;;;;2094386;28;20036;-70
2022/06/17 00:08:16;;;;;;;3.00;2.80;;;17.10;90.80;;;;;;2095411;28;20498;-70
2022/06/17 00:09:19;;;;;;;5.15;2.85;;;17.10;90.30;;;;;;2097093;28;20036;-70
2022/06/17 00:10:25;;;;;;;3.15;2.85;;;17.10;90.40;;;;;;2097878;28;20025;-70
2022/06/17 00:11:30;;;;;;;3.85;2.70;;;17.00;90.70;;;;;;2094823;28;20036;-70
2022/06/17 00:12:31;;;;;;;3.67;2.72;;;17.00;90.60;;;;;;2096000;28;20032;-70
2022/06/17 00:13:31;;;;;;;3.08;2.78;;;17.00;90.60;;;;;;2096012;28;20016;-70
2022/06/17 00:15:11;;;;;;;4.03;3.15;;;17.00;90.80;;;;;;2094879;28;20447;-70
2022/06/17 00:15:55;;;;;;;5.18;3.17;;;17.00;90.80;;;;;;2094814;28;20408;-70
2022/06/17 00:16:56;;;;;;;3.78;3.10;;;16.90;91.60;;;;;;2098015;28;20025;-70
2022/06/17 00:17:59;;;;;;;3.33;3.00;;;16.90;92.00;;;;;;2096428;28;20024;-70
2022/06/17 00:19:00;;;;;;;3.20;2.90;;;16.90;91.70;;;;;;2099121;28;20032;-70
2022/06/17 00:20:03;;;;;;;3.85;2.80;;;16.90;92.00;;;;;;2098189;28;20024;-70
2022/06/17 00:21:03;;;;;;;5.97;3.20;;;16.90;92.20;;;;;;2095832;28;20460;-70
2022/06/17 00:22:04;;;;;;;3.50;3.08;;;16.90;92.70;;;;;;2099498;28;20559;-70
2022/06/17 00:23:11;;;;;;;4.30;2.85;;;16.80;92.60;;;;;;2096602;28;20016;-70
2022/06/17 00:24:16;;;;;;;3.15;2.58;;;16.80;93.10;;;;;;2095789;28;20028;-70
2022/06/17 00:25:23;;;;;;;3.58;3.05;;;16.80;92.90;;;;;;2097723;28;20048;-70
2022/06/17 00:26:23;;;;;;;3.35;2.83;;;16.80;93.10;;;;;;2095367;28;20021;-70
2022/06/17 00:27:24;;;;;;;5.55;3.08;;;16.70;93.60;;;;;;2095963;28;20031;-70
2022/06/17 00:28:25;;;;;;;3.85;3.45;;;16.70;93.90;;;;;;2097112;28;20035;-70
2022/06/17 00:29:28;;;;;;;4.18;3.35;;;16.70;93.90;;;;;;2094609;28;20025;-70
2022/06/17 00:30:31;;;;;;;3.92;3.30;;;16.70;94.10;;;;;;2098676;28;20020;-70
2022/06/17 00:31:32;;;;;;;3.35;3.05;;;16.70;94.50;;;;;;2095573;28;20024;-70
2022/06/17 00:32:33;;;;;;;3.83;2.70;;;16.70;93.50;;;;;;2096393;28;20051;-70
2022/06/17 00:33:33;;;;;;;3.50;2.83;;;16.70;93.00;;;;;;2096053;28;20890;-70
2022/06/17 00:34:34;;;;;;;3.03;2.80;;;16.70;94.00;;;;;;2092105;28;20056;-70
2022/06/17 00:35:51;;;;;;;4.47;3.33;;;16.70;93.90;;;;;;2096588;28;20492;-70
2022/06/17 00:36:57;;;;;;;4.13;2.97;;;16.70;94.40;;;;;;2095264;28;20466;-70
2022/06/17 00:37:58;;;;;;;4.72;3.35;;;16.60;93.70;;;;;;2094902;28;20439;-70
2022/06/17 00:38:58;;;;;;;3.72;2.67;;;16.60;94.10;;;;;;2096259;28;20039;-70
2022/06/17 00:39:59;;;;;;;5.85;3.38;;;16.60;94.90;;;;;;2096049;28;20035;-70
2022/06/17 00:41:12;;;;;;;8.02;3.47;;;16.60;95.30;;;;;;2096026;28;20074;-70
2022/06/17 00:42:15;;;;;;;4.68;3.40;;;16.60;95.90;;;;;;2097005;28;20024;-70
2022/06/17 00:43:36;;;;;;;3.20;2.90;;;16.50;95.20;;;;;;2095278;28;20480;-70
2022/06/17 00:44:59;;;;;;;4.13;3.10;;;16.50;95.60;;;;;;2096795;28;20395;-70
2022/06/17 00:46:13;;;;;;;3.47;3.17;;;16.50;95.60;;;;;;2098740;28;20025;-70
2022/06/17 00:47:53;;;;;;;5.78;3.17;;;16.40;95.90;;;;;;2097635;28;20043;-70
2022/06/17 00:49:25;;;;;;;3.45;3.15;;;16.40;96.30;;;;;;2096096;28;20109;-70
2022/06/17 00:51:06;;;;;;;5.25;3.47;;;16.40;96.70;;;;;;2095225;28;20036;-70
2022/06/17 00:52:17;;;;;;;4.35;3.20;;;16.30;98.20;;;;;;2095819;28;20024;-70
2022/06/17 00:53:27;;;;;;;4.05;3.30;;;16.30;96.30;;;;;;2093749;28;20574;-70
2022/06/17 00:55:06;;;;;;;3.33;2.85;;;16.30;97.00;;;;;;2094443;28;20052;-70
2022/06/17 00:56:16;;;;;;;4.85;3.00;;;16.30;97.40;;;;;;2092867;28;20319;-70
2022/06/17 00:57:21;;;;;;;3.53;3.22;;;16.30;97.30;;;;;;2099649;28;20555;-70
2022/06/17 00:58:31;;;;;;;3.45;3.13;;;16.20;95.60;;;;;;2094256;28;20055;-70
2022/06/17 00:59:33;;;;;;;3.58;3.25;;;16.20;96.00;;;;;;2096183;28;20028;-69
2022/06/17 01:00:34;;;;;;;4.82;3.42;;;16.20;96.70;;;;;;2095928;28;20496;-69
2022/06/17 01:02:00;;;;;;;3.92;3.63;;;16.20;97.70;;;;;;2095965;28;20370;-69
2022/06/17 01:03:07;;;;;;;3.60;3.30;;;16.20;99.60;;;;;;2095053;28;20028;-69
2022/06/17 01:04:10;;;;;;;3.95;3.13;;;16.20;98.00;;;;;;2094925;28;20095;-69
2022/06/17 01:05:12;;;;;;;3.70;3.40;;;16.20;98.50;;;;;;2097492;28;20032;-69
2022/06/17 01:06:17;;;;;;;3.20;2.80;;;16.20;99.10;;;;;;2094129;28;20026;-69
2022/06/17 01:07:24;;;;;;;3.95;3.45;;;16.20;98.40;;;;;;2095784;28;20040;-69
2022/06/17 01:10:00;;;;;;;4.47;3.60;;;16.20;98.90;;;;;;2095690;28;20030;-69
2022/06/17 01:11:00;;;;;;;3.75;3.05;;;16.20;99.60;;;;;;2095337;28;20296;-69
2022/06/17 01:12:05;;;;;;;4.07;3.67;;;16.10;99.80;;;;;;2094995;28;20047;-69
2022/06/17 01:13:08;;;;;;;4.30;3.60;;;16.10;99.70;;;;;;2097893;28;20111;-69
2022/06/17 01:14:12;;;;;;;3.88;3.53;;;16.20;99.80;;;;;;2095598;28;20088;-69
2022/06/17 01:15:22;;;;;;;4.32;3.35;;;16.10;99.90;;;;;;2095008;28;20081;-69
2022/06/17 01:16:28;;;;;;;4.30;3.53;;;16.10;99.90;;;;;;2095661;28;20147;-69
2022/06/17 01:17:29;;;;;;;3.58;3.28;;;16.10;99.90;;;;;;2094703;28;20115;-69
2022/06/17 01:18:33;;;;;;;5.30;3.67;;;16.10;99.90;;;;;;2095754;28;20027;-69
2022/06/17 01:19:43;;;;;;;4.75;3.15;;;16.10;99.90;;;;;;2097420;28;20080;-69
2022/06/17 01:20:45;;;;;;;3.83;3.20;;;16.10;99.90;;;;;;2095834;28;20107;-69
2022/06/17 01:21:57;;;;;;;3.53;3.22;;;16.10;99.90;;;;;;2096989;28;20022;-69
2022/06/17 01:23:05;;;;;;;4.47;3.67;;;16.10;99.90;;;;;;2097060;28;20065;-69
2022/06/17 01:24:08;;;;;;;5.07;3.60;;;16.00;99.90;;;;;;2093646;28;20017;-70
2022/06/17 01:25:15;;;;;;;4.22;3.33;;;16.00;99.90;;;;;;2094882;28;20024;-69
2022/06/17 01:26:17;;;;;;;3.78;3.30;;;16.00;99.90;;;;;;2094933;28;20016;-70
2022/06/17 01:27:21;;;;;;;4.38;3.72;;;16.00;99.90;;;;;;2094388;28;20017;-69
2022/06/17 01:28:22;;;;;;;4.20;3.67;;;16.00;99.90;;;;;;2094087;28;20016;-69
2022/06/17 01:29:22;;;;;;;3.67;3.38;;;16.00;99.90;;;;;;2099310;28;20766;-69
2022/06/17 01:30:47;;;;;;;6.07;3.25;;;16.00;99.90;;;;;;2095393;28;20590;-69
2022/06/17 01:31:51;;;;;;;6.00;3.70;;;16.00;99.90;;;;;;2093269;28;20404;-69
2022/06/17 01:32:58;;;;;;;3.60;3.20;;;15.90;99.90;;;;;;2095259;28;20417;-69
2022/06/17 01:33:59;;;;;;;3.78;3.38;;;15.90;99.90;;;;;;2095789;28;20051;-69
2022/06/17 01:35:00;;;;;;;4.07;3.67;;;15.90;99.90;;;;;;2096112;28;20103;-69
2022/06/17 01:36:13;;;;;;;5.25;3.80;;;15.90;99.90;;;;;;2094247;28;20032;-69
2022/06/17 01:37:14;;;;;;;4.25;3.42;;;15.90;99.90;;;;;;2099166;28;20487;-70
2022/06/17 01:38:15;;;;;;;4.35;3.20;;;15.90;99.90;;;;;;2095029;28;20425;-69
2022/06/17 01:39:17;;;;;;;4.53;3.42;;;15.90;99.90;;;;;;2094330;28;20039;-69
2022/06/17 01:40:20;;;;;;;4.68;3.35;;;15.90;99.90;;;;;;2096277;28;20035;-69
2022/06/17 01:41:24;;;;;;;3.83;3.53;;;15.90;99.90;;;;;;2095263;28;20058;-69
2022/06/17 01:42:26;;;;;;;4.88;3.55;;;15.90;99.90;;;;;;2095242;28;20025;-69
2022/06/17 01:43:39;;;;;;;3.70;3.40;;;15.90;99.90;;;;;;2096987;28;20028;-69
2022/06/17 01:44:41;;;;;;;4.25;3.25;;;15.90;99.90;;;;;;2095166;28;20040;-69
2022/06/17 01:45:49;;;;;;;3.63;3.15;;;15.90;99.90;;;;;;2094726;28;20056;-69
2022/06/17 01:46:55;;;;;;;3.38;3.08;;;15.80;99.90;;;;;;2095304;28;20547;-69
2022/06/17 01:47:56;;;;;;;4.32;3.42;;;15.80;99.90;;;;;;2095688;28;20044;-69
2022/06/17 01:49:06;;;;;;;3.85;3.08;;;15.80;99.90;;;;;;2094495;28;21601;-69
2022/06/17 01:50:16;;;;;;;3.75;3.40;;;15.90;99.90;;;;;;2095778;28;20482;-69
2022/06/17 01:51:20;;;;;;;3.33;3.03;;;15.80;99.90;;;;;;2098328;28;20044;-69
2022/06/17 01:52:36;;;;;;;3.58;3.00;;;15.80;99.90;;;;;;2098693;28;20036;-69
2022/06/17 01:53:42;;;;;;;3.22;2.92;;;15.80;99.90;;;;;;2094740;28;20025;-69
2022/06/17 01:54:56;;;;;;;3.47;3.15;;;15.80;99.90;;;;;;2095088;28;20025;-69
2022/06/17 01:56:02;;;;;;;3.90;3.60;;;15.80;99.90;;;;;;2096772;28;20029;-69
2022/06/17 01:57:05;;;;;;;3.47;2.90;;;15.70;99.90;;;;;;2088663;28;20633;-69
2022/06/17 01:58:13;;;;;;;3.72;3.35;;;15.80;99.90;;;;;;2095316;28;20104;-69
2022/06/17 01:59:24;;;;;;;3.28;2.97;;;15.80;99.90;;;;;;2104220;28;20552;-69
2022/06/17 02:00:27;;;;;;;2.88;2.65;;;15.80;99.90;;;;;;2102018;28;20086;-69
2022/06/17 02:01:31;;;;;;;4.15;3.13;;;15.70;99.90;;;;;;2095209;28;20036;-69
2022/06/17 02:02:32;;;;;;;5.28;3.35;;;15.70;99.90;;;;;;2095639;28;20048;-69
2022/06/17 02:03:38;;;;;;;4.93;3.28;;;15.70;99.90;;;;;;2094530;28;20295;-69
2022/06/17 02:04:43;;;;;;;4.72;2.85;;;15.70;99.90;;;;;;2097816;28;20035;-70
2022/06/17 02:05:53;;;;;;;3.42;2.90;;;15.70;99.90;;;;;;2093483;28;20024;-69
2022/06/17 02:07:09;;;;;;;5.00;3.47;;;15.70;99.90;;;;;;2094707;28;20028;-69
2022/06/17 02:08:10;;;;;;;3.85;3.45;;;15.70;99.90;;;;;;2093526;28;20028;-69
2022/06/17 02:09:10;;;;;;;5.18;3.03;;;15.70;99.90;;;;;;2094399;28;20603;-69
2022/06/17 02:10:11;;;;;;;3.72;3.42;;;15.70;99.90;;;;;;2109504;28;20027;-69
2022/06/17 02:11:13;;;;;;;3.40;3.10;;;15.70;99.90;;;;;;2109937;28;20116;-69
2022/06/17 02:12:17;;;;;;;3.40;3.10;;;15.70;99.90;;;;;;2095646;28;20024;-69
2022/06/17 02:13:18;;;;;;;4.07;3.38;;;15.70;99.90;;;;;;2094757;28;20028;-69
2022/06/17 02:14:19;;;;;;;3.90;3.13;;;15.70;99.90;;;;;;2095434;28;20518;-69
2022/06/17 02:15:20;;;;;;;4.13;3.28;;;15.70;99.90;;;;;;2095054;28;20028;-69
2022/06/17 02:16:21;;;;;;;3.42;3.13;;;15.70;99.90;;;;;;2096491;28;20033;-69
2022/06/17 02:17:29;;;;;;;2.95;2.60;;;15.70;99.90;;;;;;2097483;28;20017;-69
2022/06/17 02:18:30;;;;;;;4.25;3.10;;;15.60;99.90;;;;;;2109573;28;20418;-69
2022/06/17 02:19:35;;;;;;;5.75;3.47;;;15.60;99.90;;;;;;2111556;28;20054;-69
2022/06/17 02:20:38;;;;;;;5.20;3.20;;;15.60;99.90;;;;;;2095439;28;20529;-69
2022/06/17 02:21:46;;;;;;;3.88;2.95;;;15.60;99.90;;;;;;2095265;28;20039;-69
2022/06/17 02:22:47;;;;;;;3.60;3.30;;;15.60;99.90;;;;;;2095719;28;20016;-69
2022/06/17 02:23:48;;;;;;;4.38;3.33;;;15.60;99.90;;;;;;2095255;28;20042;-69
2022/06/17 02:24:50;;;;;;;3.83;3.53;;;15.60;99.90;;;;;;2098129;28;20020;-69
2022/06/17 02:25:52;;;;;;;4.43;3.25;;;15.60;99.90;;;;;;2095640;28;20020;-69
2022/06/17 02:26:53;;;;;;;5.03;3.72;;;15.60;99.90;;;;;;2095457;28;20497;-69
2022/06/17 02:27:57;;;;;;;4.50;3.80;;;15.60;99.90;;;;;;2099660;28;20073;-69
2022/06/17 02:28:58;;;;;;;4.55;3.20;;;15.60;99.90;;;;;;2095338;28;20023;-69
2022/06/17 02:30:00;;;;;;;3.92;3.35;;;15.60;99.90;;;;;;2111010;28;20089;-69
2022/06/17 02:31:03;;;;;;;3.85;3.55;;;15.60;99.90;;;;;;2110224;28;20020;-69
2022/06/17 02:32:07;;;;;;;5.28;3.70;;;15.50;99.90;;;;;;2095271;28;20035;-69
2022/06/17 02:33:09;;;;;;;3.58;3.28;;;15.60;99.90;;;;;;2094766;28;20520;-69
2022/06/17 02:34:12;;;;;;;3.53;3.13;;;15.50;99.90;;;;;;2097706;28;20066;-69
2022/06/17 02:35:25;;;;;;;4.13;3.53;;;15.50;99.90;;;;;;2094510;28;20074;-69
2022/06/17 02:36:53;;;;;;;4.13;3.45;;;15.50;99.90;;;;;;2097946;28;20028;-69
2022/06/17 02:37:54;;;;;;;3.58;3.28;;;15.50;99.90;;;;;;2095774;28;20016;-69
2022/06/17 02:38:55;;;;;;;6.18;3.92;;;15.50;99.90;;;;;;2097591;28;20021;-69
2022/06/17 02:40:00;;;;;;;4.30;3.90;;;15.50;99.90;;;;;;2096952;28;20100;-69
2022/06/17 02:41:06;;;;;;;6.82;3.75;;;15.50;99.90;;;;;;2097278;28;20040;-69
2022/06/17 02:42:15;;;;;;;3.75;3.42;;;15.50;99.90;;;;;;2096654;28;20040;-69
2022/06/17 02:43:21;;;;;;;3.92;3.63;;;15.50;99.90;;;;;;2095357;28;20029;-69
2022/06/17 02:44:31;;;;;;;6.03;3.95;;;15.40;99.90;;;;;;2097243;28;20024;-69
2022/06/17 02:45:35;;;;;;;4.45;3.75;;;15.50;99.90;;;;;;2096982;28;20063;-69
2022/06/17 02:46:39;;;;;;;5.40;3.83;;;15.40;99.90;;;;;;2097790;28;20036;-69
2022/06/17 02:47:40;;;;;;;6.72;3.67;;;15.40;99.90;;;;;;2094924;28;20074;-69
2022/06/17 02:48:50;;;;;;;4.05;3.45;;;15.40;99.90;;;;;;2098458;28;20069;-69
2022/06/17 02:49:52;;;;;;;;;;;15.40;99.90;;;;;;2096858;28;20040;-69
2022/06/17 02:50:56;;;;;;;4.10;3.80;;;15.30;99.90;;;;;;2098768;28;20280;-69
2022/06/17 02:51:58;;;;;;;5.55;4.00;;;15.30;99.90;;;;;;2098074;28;20081;-69
2022/06/17 02:53:01;;;;;;;4.38;3.95;;;15.30;99.90;;;;;;2110450;28;20173;-69
2022/06/17 02:54:05;;;;;;;5.63;4.03;;;15.40;99.90;;;;;;2112286;28;20024;-70
2022/06/17 02:55:14;;;;;;;5.10;3.40;;;15.40;99.90;;;;;;2098848;28;20103;-69
2022/06/17 02:56:20;;;;;;;4.85;3.72;;;15.30;99.90;;;;;;2095946;28;20430;-69
2022/06/17 02:57:28;;;;;;;4.30;3.47;;;15.30;99.90;;;;;;2097679;28;20036;-69
2022/06/17 02:58:41;;;;;;;4.60;3.78;;;15.30;99.90;;;;;;2096597;28;20511;-69
2022/06/17 02:59:48;;;;;;;4.95;3.25;;;15.30;99.90;;;;;;2095674;28;20033;-69
2022/06/17 03:00:51;;;;;;;5.97;4.07;;;15.30;99.90;;;;;;2097585;28;20060;-69
2022/06/17 03:01:56;;;;;;;4.35;3.95;;;15.30;99.90;;;;;;2098394;28;20147;-69
2022/06/17 03:03:03;;;;;;;5.00;4.35;;;15.30;99.90;;;;;;2096817;28;20052;-69
2022/06/17 03:04:16;;;;;;;8.30;4.13;;;15.30;99.90;;;;;;2097301;28;20051;-69
2022/06/17 03:05:26;;;;;;;5.22;3.78;;;15.30;99.90;;;;;;2097138;28;20077;-69
2022/06/17 03:06:35;;;;;;;;;;;15.20;99.90;;;;;;2094986;28;20024;-69
2022/06/17 03:07:36;;;;;;;5.45;4.07;;;15.20;99.90;;;;;;2098747;28;19904;-69
2022/06/17 03:08:39;;;;;;;5.63;3.72;;;15.20;99.90;;;;;;2096023;28;20027;-69
2022/06/17 03:09:39;;;;;;;3.97;3.65;;;15.20;99.90;;;;;;2103428;28;20032;-69
2022/06/17 03:10:41;;;;;;;6.50;3.22;;;15.20;99.90;;;;;;2105237;28;20024;-69
2022/06/17 03:11:45;;;;;;;4.43;3.67;;;15.20;99.90;;;;;;2096017;28;20029;-69
2022/06/17 03:12:52;;;;;;;4.15;3.85;;;15.20;99.90;;;;;;2098087;28;20035;-69
2022/06/17 03:14:04;;;;;;;4.57;4.20;;;15.20;99.90;;;;;;2092913;28;20020;-69
2022/06/17 03:15:10;;;;;;;4.70;3.75;;;15.20;99.90;;;;;;2098176;28;20119;-69
2022/06/17 03:16:13;;;;;;;5.30;3.60;;;15.20;99.90;;;;;;2098393;28;20048;-69
2022/06/17 03:17:19;;;;;;;4.50;4.10;;;15.20;99.90;;;;;;2096922;28;20025;-69
2022/06/17 03:18:21;;;;;;;6.10;3.67;;;15.20;99.90;;;;;;2099977;28;20050;-69
2022/06/17 03:19:23;;;;;;;5.57;4.28;;;15.20;99.90;;;;;;2100344;28;20039;-69
2022/06/17 03:20:29;;;;;;;4.10;3.67;;;15.20;99.90;;;;;;2093683;28;20400;-69
2022/06/17 03:21:29;;;;;;;4.13;3.78;;;15.20;99.90;;;;;;2096829;28;20024;-69
2022/06/17 03:22:31;;;;;;;4.10;3.78;;;15.20;99.90;;;;;;2097348;28;20035;-69
2022/06/17 03:23:52;;;;;;;4.60;3.83;;;15.20;99.90;;;;;;2096741;28;20032;-69
2022/06/17 03:24:57;;;;;;;4.53;3.00;;;15.20;99.90;;;;;;2095498;28;20690;-69
2022/06/17 03:26:12;;;;;;;3.83;3.53;;;15.20;99.90;;;;;;2096186;28;20016;-69
2022/06/17 03:27:18;;;;;;;5.80;4.00;;;15.20;99.90;;;;;;2094159;28;20017;-69
2022/06/17 03:28:34;;;;;;;4.68;3.85;;;15.10;99.90;;;;;;2097054;28;20028;-69
2022/06/17 03:29:38;;;;;;;6.55;3.78;;;15.10;99.90;;;;;;2096608;28;20024;-69
2022/06/17 03:30:45;;;;;;;4.90;3.90;;;15.10;99.90;;;;;;2096097;28;20020;-69
2022/06/17 03:31:51;;;;;;;4.07;3.63;;;15.10;99.90;;;;;;2096642;28;20028;-69
2022/06/17 03:33:07;;;;;;;5.40;4.10;;;15.10;99.90;;;;;;2097752;28;20020;-69
2022/06/17 03:34:24;;;;;;;4.63;3.28;;;15.10;99.90;;;;;;2094647;28;20027;-69
2022/06/17 03:35:31;;;;;;;5.90;3.60;;;15.10;99.90;;;;;;2097026;28;20012;-69
2022/06/17 03:36:45;;;;;;;4.47;3.88;;;15.10;99.90;;;;;;2096924;28;20055;-69
2022/06/17 03:38:03;;;;;;;4.57;4.13;;;15.10;99.90;;;;;;2097275;28;20128;-69
2022/06/17 03:39:22;;;;;;;4.00;3.42;;;15.10;99.90;;;;;;2095639;28;20081;-69
2022/06/17 03:40:32;;;;;;;5.85;3.92;;;15.10;99.90;;;;;;2094304;28;20028;-69
2022/06/17 03:41:35;;;;;;;4.47;3.65;;;15.10;99.90;;;;;;2098272;28;20078;-69
2022/06/17 03:42:54;;;;;;;5.45;4.10;;;15.10;99.90;;;;;;2099285;28;20556;-69
2022/06/17 03:44:28;;;;;;;5.70;3.97;;;15.10;99.90;;;;;;2096296;28;20082;-69
2022/06/17 03:45:39;;;;;;;7.57;4.25;;;15.10;99.90;;;;;;2093155;28;21006;-70
2022/06/17 03:46:50;;;;;;;6.25;4.50;;;15.10;99.90;;;;;;2096111;28;20029;-69
2022/06/17 03:48:06;;;;;;;4.78;3.58;;;15.10;99.90;;;;;;2097325;28;20017;-69
2022/06/17 03:49:13;;;;;;;5.53;3.90;;;15.10;99.90;;;;;;2095498;28;20071;-69
2022/06/17 03:50:27;;;;;;;6.18;4.20;;;15.10;99.90;;;;;;2094934;28;20043;-69
2022/06/17 03:51:28;;;;;;;4.38;3.55;;;15.20;99.90;;;;;;2096363;28;20037;-69
2022/06/17 03:53:03;;;;;;;4.00;3.67;;;15.20;99.90;;;;;;2096565;28;20044;-69
2022/06/17 03:54:04;;;;;;;8.57;4.38;;;15.20;99.90;;;;;;2095310;28;20029;-69
2022/06/17 03:55:05;;;;;;;4.95;3.95;;;15.20;99.90;;;;;;2099211;28;20020;-69
2022/06/17 03:56:11;;;;;;;7.15;4.60;;;15.30;99.90;;;;;;2097554;28;20444;-69
2022/06/17 03:57:16;;;;;;;4.88;4.05;;;15.30;99.90;;;;;;2096133;28;20035;-69
2022/06/17 03:58:19;;;;;;;4.40;3.85;;;15.40;99.90;;;;;;2097002;28;20495;-69
2022/06/17 03:59:25;;;;;;;3.97;3.53;;;15.50;99.90;;;;;;2096562;28;20035;-69
2022/06/17 04:00:41;;;;;;;7.88;4.70;;;15.60;99.90;;;;;;2096248;28;20028;-69
2022/06/17 04:01:56;;;;;;;4.95;4.10;;;15.80;99.90;;;;;;2094245;28;20085;-69
2022/06/17 04:03:00;;;;;;;4.00;3.60;;;15.90;99.90;;;;;;2096375;28;20111;-69
2022/06/17 04:04:09;;;;;;;9.23;4.50;;;16.00;99.90;;;;;;2096680;28;20021;-69
2022/06/17 04:05:14;;;;;;;5.25;3.90;;;16.20;99.90;;;;;;2095546;28;20037;-69
2022/06/17 04:06:19;;;;;;;4.90;4.20;;;16.40;99.90;;;;;;2097401;28;20020;-69
2022/06/17 04:07:19;;;;;;;6.50;4.63;;;16.50;99.90;;;;;;2098172;28;20384;-69
2022/06/17 04:08:20;;;;;;;5.38;4.10;;;16.70;99.90;;;;;;2094475;28;20199;-69
2022/06/17 04:09:32;;;;;;;5.43;4.03;;;16.90;99.90;;;;;;2097722;28;20606;-69
2022/06/17 04:10:33;;;;;;;6.18;4.47;;;17.10;99.90;;;;;;2095783;28;20090;-69
2022/06/17 04:11:39;;;;;;;5.03;4.10;;;17.30;99.90;;;;;;2097823;28;20133;-69
2022/06/17 04:12:44;;;;;;;4.25;3.78;;;17.60;99.90;;;;;;2096826;28;20055;-69
2022/06/17 04:13:45;;;;;;;5.47;3.40;;;17.90;99.90;;;;;;2094042;28;20024;-69
2022/06/17 04:15:01;;;;;;;4.65;3.80;;;18.20;99.90;;;;;;2098447;28;20029;-69
2022/06/17 04:16:20;;;;;;;4.68;3.78;;;18.40;99.90;;;;;;2096310;28;20028;-69
2022/06/17 04:17:40;;;;;;;5.20;3.87;;;18.70;99.90;;;;;;2095885;28;20028;-69
2022/06/17 04:18:40;;;;;;;5.30;3.60;;;18.90;99.90;;;;;;2095144;28;20271;-69
2022/06/17 04:19:44;;;;;;;5.00;4.28;;;19.00;99.90;;;;;;2097167;28;20052;-69
2022/06/17 04:20:44;;;;;;;5.18;4.22;;;19.00;99.90;;;;;;2096642;28;20021;-69
2022/06/17 04:21:45;;;;;;;6.78;3.90;;;18.90;99.90;;;;;;2095635;28;20100;-69
2022/06/17 04:22:49;;;;;;;4.50;4.10;;;18.80;99.90;;;;;;2096911;28;20688;-69
2022/06/17 04:23:49;;;;;;;5.63;4.28;;;18.70;99.90;;;;;;2097277;28;20467;-69
2022/06/17 04:24:57;;;;;;;5.68;3.67;;;18.60;99.90;;;;;;2098175;28;20173;-69
2022/06/17 04:26:23;;;;;;;4.57;3.92;;;18.40;99.90;;;;;;2096693;28;20121;-69
2022/06/17 04:27:24;;;;;;;5.55;3.97;;;18.30;99.90;;;;;;2095649;28;20687;-69
2022/06/17 04:28:31;;;;;;;4.18;3.75;;;18.20;99.90;;;;;;2096978;28;20025;-69
2022/06/17 04:29:44;;;;;;;5.45;4.10;;;18.20;99.90;;;;;;2096110;28;20013;-69
2022/06/17 04:30:48;;;;;;;7.50;4.78;;;18.10;99.90;;;;;;2096879;28;20028;-69
2022/06/17 04:31:59;;;;;;;7.60;4.47;;;18.00;99.90;;;;;;2096216;28;20094;-69
2022/06/17 04:33:16;;;;;;;4.18;3.78;;;17.90;99.90;;;;;;2096585;28;20035;-69
2022/06/17 04:34:18;;;;;;;6.75;4.18;;;17.90;99.90;;;;;;2095610;28;20024;-69
2022/06/17 04:35:19;;;;;;;5.90;3.88;;;17.90;99.90;;;;;;2095877;28;20106;-69
2022/06/17 04:36:26;;;;;;;4.18;3.58;;;17.80;99.90;;;;;;2096588;28;20074;-69
2022/06/17 04:37:27;;;;;;;3.67;3.35;;;17.90;99.90;;;;;;2095299;28;20480;-69
2022/06/17 04:38:35;;;;;;;5.25;4.10;;;17.80;99.90;;;;;;2096904;28;20396;-69
2022/06/17 04:39:46;;;;;;;4.65;3.63;;;17.80;99.90;;;;;;2096414;28;20021;-69
2022/06/17 04:40:56;;;;;;;6.32;3.83;;;17.80;99.90;;;;;;2097731;28;20469;-69
2022/06/17 04:42:05;;;;;;;5.00;3.90;;;17.80;99.90;;;;;;2110577;28;20042;-69
2022/06/17 04:43:27;;;;;;;4.13;3.70;;;17.80;99.90;;;;;;2110027;28;20063;-69
2022/06/17 04:44:27;;;;;;;4.25;3.50;;;17.80;99.90;;;;;;2093164;28;20056;-69
2022/06/17 04:45:29;;;;;;;5.13;3.78;;;17.70;99.90;;;;;;2095649;28;20099;-69
2022/06/17 04:46:36;;;;;;;5.60;3.72;;;17.70;99.90;;;;;;2095979;28;20047;-69
2022/06/17 04:47:36;;;;;;;5.20;4.03;;;17.70;99.90;;;;;;2096615;28;20032;-69
2022/06/17 04:48:37;;;;;;;4.95;3.85;;;17.70;99.90;;;;;;2111215;28;20530;-69
2022/06/17 04:49:44;;;;;;;6.00;4.18;;;17.80;99.90;;;;;;2110806;28;20097;-69
2022/06/17 04:50:45;;;;;;;5.20;3.92;;;17.80;99.90;;;;;;2095185;28;20031;-69
2022/06/17 04:51:47;;;;;;;4.78;4.18;;;17.70;99.90;;;;;;2094200;28;20055;-69
2022/06/17 04:52:51;;;;;;;5.13;4.20;;;17.80;99.90;;;;;;2094992;28;20047;-69
2022/06/17 04:53:53;;;;;;;5.18;4.25;;;17.70;99.90;;;;;;2094131;28;20017;-69
2022/06/17 04:54:57;;;;;;;4.65;4.15;;;17.70;99.90;;;;;;2095665;28;20024;-69
2022/06/17 04:56:00;;;;;;;4.13;3.67;;;17.80;99.90;;;;;;2095620;28;20020;-69
2022/06/17 04:57:03;;;;;;;6.30;4.03;;;17.70;99.90;;;;;;2094965;28;20307;-69
2022/06/17 04:58:04;;;;;;;4.97;4.13;;;17.70;99.90;;;;;;2095350;28;20556;-69
2022/06/17 04:59:40;;;;;;;4.80;4.07;;;17.80;99.90;;;;;;2095616;28;20380;-69
2022/06/17 05:00:47;;;;;;;5.78;3.85;;;17.70;99.90;;;;;;2071848;28;20038;-69
2022/06/17 05:01:48;;;;;;;4.50;4.05;;;17.80;99.90;;;;;;2090173;28;20141;-69
2022/06/17 05:02:50;;;;;;;5.05;4.45;;;17.80;99.90;;;;;;2096949;28;20574;-69
2022/06/17 05:03:53;;;;;;;6.10;4.10;;;17.80;99.90;;;;;;2095153;28;20032;-69
2022/06/17 05:04:57;;;;;;;5.18;4.32;;;17.80;99.90;;;;;;2095093;28;20021;-69
2022/06/17 05:05:58;;;;;;;4.30;3.90;;;17.90;99.90;;;;;;2095166;28;20115;-69
2022/06/17 05:06:59;;;;;;;5.28;3.95;;;17.90;99.90;;;;;;2097397;28;20028;-69
2022/06/17 05:08:03;;;;;;;5.15;3.97;;;17.90;99.90;;;;;;2097371;28;20024;-69
2022/06/17 05:09:29;;;;;;;5.80;3.70;;;18.00;99.90;;;;;;2096097;28;20024;-69
2022/06/17 05:10:37;;;;;;;4.07;3.60;;;18.10;99.90;;;;;;2094077;28;20020;-69
2022/06/17 05:11:43;;;;;;;6.47;3.63;;;18.10;99.90;;;;;;2095351;28;20028;-69
2022/06/17 05:12:54;;;;;;;6.30;4.20;;;18.20;99.90;;;;;;2095745;28;20029;-69
2022/06/17 05:14:14;;;;;;;6.30;4.15;;;18.40;99.90;;;;;;2097681;28;20056;-69
2022/06/17 05:15:17;;;;;;;4.60;3.70;;;18.40;99.90;;;;;;2092969;28;20403;-69
2022/06/17 05:16:18;;;;;;;5.00;3.85;;;18.50;99.90;;;;;;2097470;28;20660;-69
2022/06/17 05:17:20;;;;;;;5.10;3.70;;;18.50;99.90;;;;;;2095359;28;20076;-69
2022/06/17 05:18:21;;;;;;;4.57;3.78;;;18.70;99.90;;;;;;2097861;28;20380;-70
2022/06/17 05:19:21;;;;;;;6.45;4.10;;;18.70;99.90;;;;;;2096031;28;20048;-70
2022/06/17 05:20:24;;;;;;;6.07;3.92;;;18.90;99.90;;;;;;2097319;28;20019;-70
2022/06/17 05:21:25;;;;;;;5.47;4.13;;;19.00;99.90;;;;;;2097748;28;20021;-70
2022/06/17 05:22:34;;;;;;;5.00;3.40;;;19.10;99.90;;;;;;2096374;28;20024;-70
2022/06/17 05:23:34;;;;;;;6.65;3.45;;;19.20;99.90;;;;;;2094926;28;20072;-70
2022/06/17 05:24:35;;;;;;;3.47;3.15;;;19.30;99.90;;;;;;2096162;28;20031;-70
2022/06/17 05:25:38;;;;;;;4.57;3.03;;;19.50;99.90;;;;;;2095081;28;20024;-70
2022/06/17 05:26:38;;;;;;;4.25;3.05;;;19.60;99.90;;;;;;2097774;28;20186;-70
2022/06/17 05:27:39;;;;;;;5.28;3.00;;;19.70;99.90;;;;;;2095877;28;20074;-70
2022/06/17 05:28:40;;;;;;;4.70;3.00;;;19.80;99.90;;;;;;2097811;28;20091;-70
2022/06/17 05:29:41;;;;;;;5.35;2.70;;;20.00;99.90;;;;;;2099817;28;20024;-70
2022/06/17 05:30:52;;;;;;;4.50;2.90;;;20.10;99.90;;;;;;2096111;28;20271;-70
2022/06/17 05:31:53;;;;;;;10.05;3.22;;;20.20;99.90;;;;;;2093075;28;20027;-70
2022/06/17 05:32:55;;;;;;;3.75;2.47;;;20.30;99.90;;;;;;2096109;28;20023;-70
2022/06/17 05:33:55;;;;;;;6.25;2.30;;;20.50;99.90;;;;;;2094162;28;20031;-70
2022/06/17 05:34:56;;;;;;;3.35;2.40;;;20.60;98.90;;;;;;2095228;28;20028;-70
2022/06/17 05:35:57;;;;;;;3.60;2.45;;;20.70;99.00;;;;;;2095677;28;20039;-70
2022/06/17 05:36:57;;;;;;;5.40;2.58;;;20.90;98.00;;;;;;2096383;28;20029;-70
2022/06/17 05:37:58;;;;;;;3.08;2.60;;;21.00;98.40;;;;;;2097207;28;20114;-70
2022/06/17 05:38:59;;;;;;;3.75;2.42;;;21.20;97.60;;;;;;2095856;28;20029;-70
2022/06/17 05:39:59;;;;;;;5.35;2.22;;;21.30;97.30;;;;;;2095653;28;20025;-70
2022/06/17 05:41:00;;;;;;;3.80;2.17;;;21.50;94.10;;;;;;2098245;28;20580;-70
2022/06/17 05:42:01;;;;;;;5.10;2.10;;;21.60;93.20;;;;;;2095698;28;20020;-70
2022/06/17 05:43:01;;;;;;;2.42;2.00;;;21.70;91.70;;;;;;2094408;28;20486;-70
2022/06/17 05:44:02;;;;;;;3.08;1.80;;;21.90;91.60;;;;;;2096037;28;20380;-70
2022/06/17 05:45:04;;;;;;;5.25;2.35;;;22.00;92.50;;;;;;2097515;28;20107;-70
2022/06/17 05:46:05;;;;;;;3.83;1.95;;;22.20;90.90;;;;;;2094131;28;20020;-70
2022/06/17 05:47:06;;;;;;;4.47;2.28;;;22.30;88.40;;;;;;2095786;28;20016;-70